KINL

Falls International-Einarson Field Airport

International Falls, Minnesota, USA
METAR KINL 170155Z AUTO 13004KT 1 1/2SM BR OVC007 M10/M12 A3003 RMK AO2 SLP200 I1001 T11001117
Observed Flight Rules
Dec-17 @ 01:55 UTC (19 minutes ago) Instrument Flight Rules
Wind Visibility Clouds Conditions
130° at 4 knots 1 1/2 miles
  • Overcast at 700' AGL
  • Mist
Temperatures Readings
Current -10°C / 14°F
Dewpoint -12°C / 10°F
Humidity 85%
Altimeter 30.03" Hg
Pressure 1020 hPa
Elevation 360
METAR KINL 170155Z AUTO 13004KT 1 1/2SM BR OVC007 M10/M12 A3003 RMK AO2 SLP200 I1001 T11001117
Observed Flight Rules
Dec-17 @ 01:55 UTC
(19 minutes ago)
IFR
Wind Visibility
130° at 4 knots 1 1/2 miles
Clouds
  • Overcast at 700' AGL
Conditions
  • Mist
Temperature Dewpoint
-10°C / 14°F -12°C / 10°F
Humidity Altimeter Pressure
85% 30.03" Hg 1020 hPa